AirNav   Air Wisconsin pilot careers
 
 658 users online  

1AL5 Berry Field Airport
Loxley, Alabama, USA

GOING TO LOXLEY?


FAA INFORMATION EFFECTIVE 15 AUGUST 2019

Location

FAA Identifier: 1AL5
Lat/Long: 30-38-11.0000N 087-44-52.0000W
30-38.183333N 087-44.866667W
30.6363889,-87.7477778
(estimated)
Elevation: 170 ft. / 52 m (estimated)
Variation: 01E (1990)
From city: 1 mile N of LOXLEY, AL
Time zone: UTC -5 (UTC -6 during Standard Time)
Zip code: 36551

Airport Operations

Airport use: Private use. Permission required prior to landing
Activation date: 03/1993
Control tower: no
ARTCC: HOUSTON CENTER
FSS: ANNISTON FLIGHT SERVICE STATION
Attendance: UNATNDD
Segmented circle: no

Airport Communications

WX AWOS-3PT at CQF (12 nm SW): 118.425 (251-928-3242)
WX ASOS at BFM (17 nm W): PHONE 251-431-6762

Nearby radio navigation aids

VOR radial/distance  VOR name  Freq  Var
BFMr081/16.0BROOKLEY VORTAC112.8004E
NUNr294/(23.5)SAUFLEY VOR108.8001E
SJIr095/32.0SEMMES VORTAC115.3005E

 
NDB name  Hdg/Dist  Freq  Var  ID
WISLE106/29.624801WMOB -- --- -...
PICKENS294/31.832602WPKZ .--. -.- --..

Airport Services

Runway Information

Runway 9/27

Dimensions: 1300 x 75 ft. / 396 x 23 m
Surface: turf
RUNWAY 9  RUNWAY 27
Traffic pattern: leftleft
Obstructions: 65 ft. pline, 2000 ft. from runway5 ft. fence, 200 ft. from runway

Airport Ownership and Management from official FAA records

Ownership: Privately-owned
Owner: ROGER BARNHILL, JR.
3243 N. HOLLY STREET
LOXLEY, AL 36551
Phone 205-964-5169
Manager: ROGER BARNHILL, JR.
3243 N. HOLLY STREET
LOXLEY, AL 36551
Phone 205-964-5169

Additional Remarks

FOR CD CTC HOUSTON ARTCC AT 281-230-5622.

Instrument Procedures

There are no published instrument procedures at 1AL5.

Some nearby airports with instrument procedures:

KCQF - H L Sonny Callahan Airport (12 nm SW)
5R4 - Foley Municipal Airport (13 nm S)
1R8 - Bay Minette Municipal Airport (15 nm N)
KBFM - Mobile Downtown Airport (17 nm W)
KJKA - Jack Edwards National Airport (21 nm S)
 
Loc | Ops | Rwys | IFR | FBO | Links
Com | Nav | Svcs | Stats | Notes

Continental Motors
AirBoss

 
Area around 1AL5 (Berry Field Airport)
 
Road maps at: MapQuest Bing Google
 
Aerial photo
No photo
 
Sectional chart

 
Airport distance calculator
Flying to Berry Field Airport? Find the distance to fly.

From to 1AL5

Sunrise and sunset
Times for 17-Aug-2019
 Local
(UTC-5)
 Zulu
(UTC)
Morning civil twilight05:5410:54
Sunrise06:2011:20
Sunset19:3000:30
Evening civil twilight19:5600:56

Current date and time
Zulu (UTC)  18-Aug-2019 03:33:37
Local (UTC-5)  17-Aug-2019 22:33:37
 
METAR
KCQF 
12nm SW 
180315Z AUTO 00000KT 10SM CLR 25/25 A2996 RMK AO2
KBFM 
17nm W 
180253Z AUTO 19003KT 10SM CLR 29/27 A2997 RMK AO2 SLP148 T02890267 53012
KJKA 
21nm S 
180315Z AUTO 00000KT 10SM OVC023 26/25 A2997 RMK AO2 LTG DSNT SE T02590252
TAF
KBFM 
17nm W 
171732Z 1718/1818 10006KT P6SM FEW040 FM172100 15007KT P6SM SCT050 SCT250 FM180200 VRB02KT P6SM SKC FM181500 15005KT P6SM SCT040 SCT250
NOTAMs
Click for the latest NOTAMs
NOTAMs are issued by the DoD/FAA and will open in a separate window not controlled by AirNav.

 

 
 

Would you like to see your business listed on this page?

 If your business provides an interesting product or service to pilots, flight crews, aircraft, or users of the Berry Field Airport, you should consider listing it here.  To start the listing process, click on the button below
 
Add a business
 

Other Pages about Berry Field Airport

Update a link
 
Copyright © AirNav, LLC. All rights reserved. Privacy Policy  Contact